Hoppa till innehåll

METAR väder och rapporter - KJFK

Nedan listas information från vald flygplats. Andra METARs finns längre ned på sidan. Kontakta oss om någon saknas eller skriv in egen ICAO-kod.

Coded METAR: 2022/06/26 06:51 KJFK 260651Z 21006KT 10SM FEW250 21/18 A3011 RMK AO2 SLP194 T02060183 $

Weather Report @ KJFK

Issued: 26th Jun 2022 at 08:51 CEST

Wind: light breeze from the South-Southwest (210 degrees) at 6 knots (7 mph, 11 kph, 3 mps, Force 2)
Visibility: 10 statute miles
Cloud: a few clouds at 25000 feet
Temperature: 70F / 21C
Dewpoint: 64F / 18C
Humidity: 83%
Pressure: 30.11 inches of mercury

Coded TAF: 2022/06/26 06:37 TAF KJFK 260529Z 2606/2712 20006KT P6SM SCT250 FM261500 20010KT P6SM SCT250 FM261800 18014KT P6SM SCT060 SCT250 FM262100 18019G26KT P6SM SCT060 SCT250 FM270100 19015KT P6SM BKN060 FM270600 19011KT P6SM BKN040 PROB30 2709/2712 5SM -SHRA

Weather Forecast @ KJFK

Issued: 26th Jun 2022 at 08:37 CEST

Valid : 26th Jun 08:00 until 27th Jun 14:00 CEST

08:00 CEST
Wind: light breeze from the South-Southwest (200 degrees) at 6 knots (7 mph, 11 kph, 3 mps, Force 2)
Visibility: more than 6 statute miles
Cloud: scattered at 25000 feet

17:00 CEST becoming:
Wind: gentle breeze from the South-Southwest (200 degrees) at 10 knots (12 mph, 19 kph, 5 mps, Force 3)
Visibility: more than 6 statute miles
Cloud: scattered at 25000 feet

20:00 CEST becoming:
Wind: moderate breeze from the South (180 degrees) at 14 knots (16 mph, 26 kph, 7 mps, Force 4)
Visibility: more than 6 statute miles
Cloud: scattered at 6000 feet
Cloud: scattered at 25000 feet

23:00 CEST becoming:
Wind: fresh breeze from the South (180 degrees) at 19 knots (22 mph, 35 kph, 10 mps, Force 5) gusting to 26 knots (30 mph 48 kph, 13 mps)
Visibility: more than 6 statute miles
Cloud: scattered at 6000 feet
Cloud: scattered at 25000 feet

03:00 CEST becoming:
Wind: moderate breeze from the South (190 degrees) at 15 knots (17 mph, 28 kph, 8 mps, Force 4)
Visibility: more than 6 statute miles
Cloud: broken at 6000 feet

08:00 CEST becoming:
Wind: moderate breeze from the South (190 degrees) at 11 knots (13 mph, 20 kph, 6 mps, Force 4)
Visibility: more than 6 statute miles
Cloud: broken at 4000 feet

11:00 CEST to 14:00 CEST
there is a 30% chance of:

Visibility: 5 statute miles
Weather: light showers of rain

Internet delivery of weather data is not secure or reliable enough for operational purposes.

NEVER RELY ON THE OUTPUT OF THIS SCRIPT TO MAKE DECISIONS ABOUT ANYTHING IN WHICH THE WEATHER FORECAST AND ITS INTERPRETATION COULD BE AN ISSUE OF SAFETY.

Andra intressanta METARs

Klicka på önskad rubrik nedan för att visa nuvarande väder för den platsen.

Avstånd från stationen: NO 27kmESGG - Göteborg (Landvetter)
Uppdaterad: 2022-06-26 08:50
 Vind från O
Vind: O 13 km/h
Temperatur: 19°C
Daggpunkt: 15°C
Luftfuktighet: 78%
Barometer: 1016 hPa
Summering: Lätt regn
Moln: Delvis molnigt
Sikt: 10 km
Molninformation: Delvis molnigt 1494 m
2022/06/26 06:50 ESGG 260650Z 09007KT 9999 -RA SCT049 19/15 Q1016
Lätt regn, Delvis molnigt
Lätt regn
Delvis molnigt
  Visa detaljer för Göteborg (Landvetter)
Avstånd från stationen: N 28kmESGP - Göteborg (Säve)
Uppdaterad: 2022-06-26 08:50
 Vind från ONO
Vind: ONO 7 km/h
Temperatur: 18°C
Daggpunkt: 16°C
Luftfuktighet: 88%
Barometer: 1015 hPa
Moln: Övervägande molnigt
Sikt: 10 km
Molninformation: Några få moln 122 m
Övervägande molnigt 2438 m
2022/06/26 06:50 ESGP 260650Z 06004KT 9999 FEW004 BKN080 18/16 Q1015
Övervägande molnigt
Övervägande molnigt
  Visa detaljer för Göteborg (Säve)
Avstånd från stationen: NO 419kmESSA - Stockholm (Arlanda)
Uppdaterad: 2022-06-26 08:50
 Vind från SO
Vind: SO 6 km/h
Temperatur: 23°C
Daggpunkt: 13°C
Luftfuktighet: 53%
Barometer: 1019 hPa
Summering: Klart
Sikt: mer än 10 km
2022/06/26 06:50 ESSA 260650Z 14003KT 110V170 CAVOK 23/13 Q1019 NOSIG
Klart
Klart
  Visa detaljer för Stockholm (Arlanda)
Avstånd från stationen: ONO 404kmESSB - Stockholm (Bromma)
Uppdaterad: 2022-06-26 08:50
 Vind från OSO
Vind: OSO 6 km/h
Temperatur: 25°C
Daggpunkt: 12°C
Luftfuktighet: 44%
Barometer: 1019 hPa
Moln: Klart
Sikt: 10 km
2022/06/26 06:50 ESSB 260650Z AUTO 11003KT 070V160 9999 NCD 25/12 Q1019
Klart
Klart
  Visa detaljer för Stockholm (Bromma)
Avstånd från stationen: ONO 323kmESKN - Stockholm (Skavsta)
Uppdaterad: 2022-06-26 08:50
 Vind från O
Vind: O 7 km/h
Temperatur: 23°C
Daggpunkt: 16°C
Luftfuktighet: 65%
Barometer: 1019 hPa
Summering: Klart
Sikt: mer än 10 km
2022/06/26 06:50 ESKN 260650Z 09004KT 060V160 CAVOK 23/16 Q1019
Klart
Klart
  Visa detaljer för Stockholm (Skavsta)
Avstånd från stationen: SSO 238kmESMS - Malmö flygplats (Sturup)
Uppdaterad: 2022-06-26 08:50
 Vind från OSO
Vind: OSO 15 km/h
Temperatur: 23°C
Daggpunkt: 16°C
Luftfuktighet: 65%
Barometer: 1015 hPa
Summering: Klart
Sikt: mer än 10 km
2022/06/26 06:50 ESMS 260650Z 12008KT CAVOK 23/16 Q1015
Klart
Klart
  Visa detaljer för Malmö flygplats (Sturup)
Avstånd från stationen: O 382kmESSV - Visby flygplats
Uppdaterad: 2022-06-26 08:50
 Vind från SO
Vind: SO 11 km/h
Temperatur: 27°C
Värmeindex: 27°C
Daggpunkt: 15°C
Luftfuktighet: 48%
Barometer: 1019 hPa
Summering: Klart
Sikt: mer än 10 km
2022/06/26 06:50 ESSV 260650Z 14006KT CAVOK 27/15 Q1019
Klart
Klart
  Visa detaljer för Visby flygplats
Avstånd från stationen: NNO 92kmESGT - Trollhättan
Uppdaterad: 2022-06-26 08:50
 Vind från OSO
Vind: OSO 9 km/h
Temperatur: 21°C
Daggpunkt: 15°C
Luftfuktighet: 69%
Barometer: 1016 hPa
Moln: Övervägande molnigt
Sikt: 10 km
Molninformation: Övervägande molnigt 3353 m
2022/06/26 06:50 ESGT 260650Z AUTO 12005KT 9999 BKN110/// 21/15 Q1016
Övervägande molnigt
Övervägande molnigt
  Visa detaljer för Trollhättan
Avstånd från stationen: ONO 129kmESGJ - Jönköpings flygplats
Uppdaterad: 2022-06-26 08:50
 Vind från O
Vind: O 9 km/h
Temperatur: 23°C
Daggpunkt: 16°C
Luftfuktighet: 65%
Barometer: 1017 hPa
Moln: Klart
Sikt: 10 km
2022/06/26 06:50 ESGJ 260650Z AUTO 10005KT 050V120 9999 NCD 23/16 Q1017
Klart
Klart
  Visa detaljer för Jönköpings flygplats
Avstånd från stationen: NNO 229kmESOK - Karlstad
Uppdaterad: 2022-06-26 08:50
 Vind från SSO
Vind: SSO 11 km/h
Temperatur: 22°C
Daggpunkt: 12°C
Luftfuktighet: 53%
Barometer: 1017 hPa
Moln: Några få moln
Sikt: 10 km
Molninformation: Några få moln 3353 m
2022/06/26 06:50 ESOK 260650Z AUTO 15006KT 120V180 9999 FEW110/// 22/12 Q1017
Några få moln
Några få moln
  Visa detaljer för Karlstad
Avstånd från stationen: N 643kmESNZ - Östersund (Frösön)
Uppdaterad: 2022-06-26 08:50
 Vind från SSV
Vind: SSV 4 km/h
Temperatur: 23°C
Daggpunkt: 15°C
Luftfuktighet: 61%
Barometer: 1018 hPa
Summering: Klart
Sikt: mer än 10 km
2022/06/26 06:50 ESNZ 260650Z 21002KT CAVOK 23/15 Q1018
Klart
Klart
  Visa detaljer för Östersund (Frösön)
Avstånd från stationen: SSO 216kmEKCH - Köpenhamn (Kastrup)
Uppdaterad: 2022-06-26 08:50
 Vind från SO
Vind: SO 17 km/h
Temperatur: 22°C
Daggpunkt: 18°C
Luftfuktighet: 78%
Barometer: 1014 hPa
Moln: Övervägande molnigt
Sikt: 10 km
Molninformation: Övervägande molnigt 4572 m
2022/06/26 06:50 EKCH 260650Z AUTO 14009KT 9999 BKN150/// 22/18 Q1014 NOSIG
Övervägande molnigt
Övervägande molnigt
  Visa detaljer för Köpenhamn (Kastrup)
Avstånd från stationen: SV 263kmEKBI - Billund Airport
Uppdaterad: 2022-06-26 08:50
 Vind från OSO
Vind: OSO 13 km/h
Temperatur: 21°C
Daggpunkt: 18°C
Luftfuktighet: 83%
Barometer: 1013 hPa
Moln: Genommulet
Sikt: 10 km
Molninformation: Genommulet 3048 m
2022/06/26 06:50 EKBI 260650Z AUTO 11007KT 9999 OVC100/// 21/18 Q1013
Genommulet
Genommulet
  Visa detaljer för Billund Airport
Avstånd från stationen: N 302kmENGM - Oslo (Gardermoen)
Uppdaterad: 2022-06-26 08:50
 Vind från varierande
Vind: varierande 4 km/h
Temperatur: 20°C
Daggpunkt: 17°C
Luftfuktighet: 83%
Barometer: 1017 hPa
Summering: Klart
Sikt: mer än 10 km
2022/06/26 06:50 ENGM 260650Z VRB02KT CAVOK 20/17 Q1017 NOSIG
Klart
Klart
  Visa detaljer för Oslo (Gardermoen)
Avstånd från stationen: NO 540kmEFMA - Mariehamn / Åland
Uppdaterad: 2022-06-26 08:50
 Vind från SO
Vind: SO 6 km/h
Temperatur: 25°C
Daggpunkt: 15°C
Luftfuktighet: 54%
Barometer: 1020 hPa
Summering: Klart
Sikt: mer än 10 km
2022/06/26 06:50 EFMA 260650Z AUTO 14003KT 090V180 CAVOK 25/15 Q1020
Klart
Klart
  Visa detaljer för Mariehamn / Åland
Avstånd från stationen: S 558kmEDDT - Berlin (Tegel), Germany
Uppdaterad: 2020-11-09 07:50
Ej aktuell
 Vind från O
Vind: O 11 km/h
Temperatur: 6°C
Vindavkylning: 4°C
Daggpunkt: 5°C
Luftfuktighet: 93%
Barometer: 1027 hPa
Summering: Dimmigt
Moln: Genommulet
Sikt: 3 km
Molninformation: Genommulet 91 m
2020/11/09 06:50 EDDT 090650Z 09006KT 050V120 3000 BR OVC003 06/05 Q1027
Dimmigt, Genommulet
Dimmigt
Genommulet
  Visa detaljer för Berlin (Tegel), Germany
Avstånd från stationen: SV 737kmEHAM - Amsterdam (Schiphol)
Uppdaterad: 2022-06-26 08:55
 Vind från SV
Vind: SV 15 km/h
Temperatur: 17°C
Daggpunkt: 14°C
Luftfuktighet: 83%
Barometer: 1014 hPa
Moln: Delvis molnigt
Sikt: 10 km
Molninformation: Delvis molnigt 366 m
2022/06/26 06:55 EHAM 260655Z 22008KT 180V250 9999 SCT012 17/14 Q1014 NOSIG
Delvis molnigt
Delvis molnigt
  Visa detaljer för Amsterdam (Schiphol)
Avstånd från stationen: ONO 808kmEFHK - Helsingfors (Vantaa)
Uppdaterad: 2022-06-26 08:50
 Vind från varierande
Vind: varierande 4 km/h
Temperatur: 25°C
Daggpunkt: 14°C
Luftfuktighet: 51%
Barometer: 1021 hPa
Summering: Klart
Sikt: mer än 10 km
2022/06/26 06:50 EFHK 260650Z VRB02KT CAVOK 25/14 Q1021 NOSIG
Klart
Klart
  Visa detaljer för Helsingfors (Vantaa)
Avstånd från stationen: SSV 537kmEDDW - Bremen
Uppdaterad: 2022-06-26 08:50
 Vind från V
Vind: V 19 km/h
Temperatur: 22°C
Daggpunkt: 15°C
Luftfuktighet: 65%
Barometer: 1013 hPa
Summering: Klart
Sikt: mer än 10 km
2022/06/26 06:50 EDDW 260650Z AUTO 26010KT CAVOK 22/15 Q1013 NOSIG
Klart
Klart
  Visa detaljer för Bremen
Avstånd från stationen: SSV 861kmEDDF - Frankfurt am Main
Uppdaterad: 2022-06-26 08:50
 Vind från VSV
Vind: VSV 11 km/h
Temperatur: 22°C
Daggpunkt: 15°C
Luftfuktighet: 65%
Barometer: 1015 hPa
Moln: Några få moln
Sikt: 10 km
Molninformation: Några få moln 610 m
2022/06/26 06:50 EDDF 260650Z 25006KT 200V290 9999 FEW020 22/15 Q1015 NOSIG
Några få moln
Några få moln
  Visa detaljer för Frankfurt am Main
Avstånd från stationen: SV 880kmEBBR - Bryssel international
Uppdaterad: 2022-06-26 08:50
 Vind från SSV
Vind: SSV 11 km/h
Temperatur: 15°C
Daggpunkt: 13°C
Luftfuktighet: 88%
Barometer: 1015 hPa
Summering: Klart
Sikt: mer än 10 km
2022/06/26 06:50 EBBR 260650Z 20006KT CAVOK 15/13 Q1015 NOSIG
Klart
Klart
  Visa detaljer för Bryssel international
Avstånd från stationen: SV 738kmEHAM - Amsterdam (Schiphol)
Uppdaterad: 2022-06-26 08:55
 Vind från SV
Vind: SV 15 km/h
Temperatur: 17°C
Daggpunkt: 14°C
Luftfuktighet: 83%
Barometer: 1014 hPa
Moln: Delvis molnigt
Sikt: 10 km
Molninformation: Delvis molnigt 366 m
2022/06/26 06:55 EHAM 260655Z 22008KT 180V250 9999 SCT012 17/14 Q1014 NOSIG
Delvis molnigt
Delvis molnigt
  Visa detaljer för Amsterdam (Schiphol)
Avstånd från stationen: SV 1044kmEGLL - London (Heathrow)
Uppdaterad: 2022-06-26 08:50
 Vind från SSV
Vind: SSV 24 km/h
Temperatur: 16°C
Daggpunkt: 9°C
Luftfuktighet: 63%
Barometer: 1011 hPa
Moln: Klart
Sikt: 10 km
2022/06/26 06:50 EGLL 260650Z AUTO 21013KT 9999 NCD 16/09 Q1011
Klart
Klart
  Visa detaljer för London (Heathrow)
Avstånd från stationen: SV 1132kmLFPG - Paris (Charles de Gaulle)
Uppdaterad: 2022-06-26 09:00
 Vind från varierande
Vind: varierande 4 km/h
Temperatur: 15°C
Daggpunkt: 11°C
Luftfuktighet: 77%
Barometer: 1016 hPa
Summering: Klart
Sikt: mer än 10 km
2022/06/26 07:00 LFPG 260700Z VRB02KT CAVOK 15/11 Q1016 NOSIG
Klart
Klart
  Visa detaljer för Paris (Charles de Gaulle)
Avstånd från stationen: SSV 1142kmLSZH - Zürich Airport
Uppdaterad: 2022-06-26 08:50
 Vind från NV
Vind: NV 7 km/h
Temperatur: 19°C
Daggpunkt: 16°C
Luftfuktighet: 83%
Barometer: 1015 hPa
Moln: Några få moln
Sikt: 10 km
Molninformation: Några få moln 366 m
2022/06/26 06:50 LSZH 260650Z 31004KT 280V340 9999 FEW012 19/16 Q1015 NOSIG
Några få moln
Några få moln
  Visa detaljer för Zürich Airport
Avstånd från stationen: S 1749kmLIRF - Rome Airport (Fiumicino - Leonardo da Vinci)
Uppdaterad: 2022-06-26 08:50
 Vind från ONO
Vind: ONO 17 km/h
Temperatur: 28°C
Värmeindex: 28°C
Daggpunkt: 17°C
Luftfuktighet: 51%
Barometer: 1014 hPa
Summering: Klart
Sikt: mer än 10 km
2022/06/26 06:50 LIRF 260650Z 06009KT CAVOK 28/17 Q1014 NOSIG
Klart
Klart
  Visa detaljer för Rome Airport (Fiumicino - Leonardo da Vinci)
Avstånd från stationen: SO 2679kmLTAI - Antalya
Uppdaterad: 2022-06-26 08:50
 Vind från N
Vind: N 22 km/h
Temperatur: 30°C
Daggpunkt: 11°C
Luftfuktighet: 31%
Barometer: 1008 hPa
Summering: Klart
Sikt: mer än 10 km
2022/06/26 06:50 LTAI 260650Z 01012KT CAVOK 30/11 Q1008 NOSIG
Klart
Klart
  Visa detaljer för Antalya
Avstånd från stationen: VSV 6074kmKJFK - New Your (JFK)
Uppdaterad: 2022-06-26 08:51
 Vind från SSV
Vind: SSV 11 km/h
Temperatur: 21°C
Daggpunkt: 18°C
Luftfuktighet: 83%
Barometer: 1019.6 hPa
Moln: Några få moln
Sikt: 16 km
Molninformation: Några få moln 7620 m
2022/06/26 06:51 KJFK 260651Z 21006KT 10SM FEW250 21/18 A3011 RMK AO2 SLP194 T02060183 $
Några få moln
Några få moln
  Visa detaljer för New Your (JFK)
Avstånd från stationen: VSV 8848kmKLAX - Los Angeles International Airport
Uppdaterad: 2022-06-26 08:53
 Vind från calm
Vind: Vindstilla
Temperatur: 18°C
Daggpunkt: 16°C
Luftfuktighet: 88%
Barometer: 1014.6 hPa
Moln: Övervägande molnigt
Sikt: 14 km
Molninformation: Övervägande molnigt 274 m
2022/06/26 06:53 KLAX 260653Z 00000KT 9SM BKN009 18/16 A2996 RMK AO2 SLP142 T01780156
Övervägande molnigt
Övervägande molnigt
  Visa detaljer för Los Angeles International Airport
Avstånd från stationen: SO 4968kmOMDB - Dubai International Airport
Uppdaterad: 2022-06-26 09:00
 Vind från VSV
Vind: VSV 7 km/h
Temperatur: 38°C
Värmeindex: 44°C
Daggpunkt: 23°C
Luftfuktighet: 42%
Barometer: 997 hPa
Moln: Delvis molnigt
Sikt: 9 km
2022/06/26 07:00 OMDB 260700Z 24004KT 160V310 9000 NSC 38/23 Q0997 NOSIG
Delvis molnigt
Delvis molnigt
  Visa detaljer för Dubai International Airport
Avstånd från stationen: OSO 8570kmRJTT - Tokyo International Airport
Uppdaterad: 2022-06-26 09:00
 Vind från S
Vind: S 37 km/h
Temperatur: 29°C
Värmeindex: 32°C
Daggpunkt: 22°C
Luftfuktighet: 66%
Barometer: 1011 hPa
Moln: Några få moln
Sikt: 10 km
Molninformation: Några få moln 914 m
2022/06/26 07:00 RJTT 260700Z 19020KT 9999 FEW030 29/22 Q1011 NOSIG
Några få moln
Några få moln
  Visa detaljer för Tokyo International Airport
Avstånd från stationen: OSO 7125kmZBAA - Peking (Beijing Capital)
Uppdaterad: 2022-06-26 09:00
 Vind från O
Vind: O 11 km/h
Temperatur: 32°C
Värmeindex: 34°C
Daggpunkt: 20°C
Luftfuktighet: 49%
Barometer: 1002 hPa
Summering: Klart
Sikt: mer än 10 km
2022/06/26 07:00 ZBAA 260700Z 09003MPS 050V130 CAVOK 32/20 Q1002 NOSIG
Klart
Klart
  Visa detaljer för Peking (Beijing Capital)
VÄDER KURIOSA -  One Inch of RainOne inch of rain over one square mile equals to 17.4 million gallons of water.